createdAt,value
2019-05-19T17:09:21.422Z,3.20
2019-05-19T17:11:50.849Z,3.75
2019-05-19T17:14:19.951Z,3.50
2019-05-19T17:16:49.224Z,2.77
2019-05-19T17:19:19.337Z,3.12
2019-05-19T17:21:48.362Z,3.27
2019-05-19T17:24:17.216Z,3.77
2019-05-19T17:26:46.259Z,3.15
2019-05-19T17:29:15.336Z,3.90
2019-05-19T17:31:45.671Z,4.10
2019-05-19T17:34:14.626Z,4.15
2019-05-19T17:36:43.642Z,4.30
2019-05-19T17:39:12.618Z,4.33
2019-05-19T17:41:45.970Z,4.28
2019-05-19T17:44:15.151Z,4.55
2019-05-19T17:46:47.933Z,4.12
2019-05-19T17:49:17.651Z,3.85
2019-05-19T17:51:47.056Z,4.33
2019-05-19T17:54:20.096Z,4.03
2019-05-19T17:56:47.198Z,4.30
2019-05-19T17:59:16.986Z,4.20
2019-05-19T18:01:46.514Z,3.90
2019-05-19T18:04:15.907Z,3.85
2019-05-19T18:06:45.722Z,3.80
2019-05-19T18:09:15.060Z,3.90
2019-05-19T18:11:44.449Z,3.72
2019-05-19T18:14:13.935Z,3.63
2019-05-19T18:16:43.241Z,3.70
2019-05-19T18:19:13.065Z,4.15
2019-05-19T18:21:45.831Z,3.70
2019-05-19T18:24:15.599Z,3.72
2019-05-19T18:26:45.063Z,3.80
2019-05-19T18:29:14.895Z,4.05
2019-05-19T18:31:44.082Z,4.53
2019-05-19T18:34:14.006Z,3.85
2019-05-19T18:36:44.349Z,3.80
2019-05-19T18:39:13.816Z,4.17
2019-05-19T18:41:43.109Z,3.85
2019-05-19T18:44:12.405Z,3.80
2019-05-19T18:46:42.044Z,3.47
2019-05-19T18:49:11.947Z,4.50
2019-05-19T18:51:41.560Z,3.55
2019-05-19T18:54:10.856Z,4.20
2019-05-19T18:56:40.382Z,4.08
2019-05-19T18:59:09.743Z,4.50
2019-05-19T19:01:38.821Z,4.50
2019-05-19T19:04:10.056Z,4.22
2019-05-19T19:06:39.101Z,3.87
2019-05-19T19:09:09.115Z,4.10
2019-05-19T19:11:39.154Z,4.62
2019-05-19T19:14:08.957Z,4.10
2019-05-19T19:16:38.351Z,4.20
2019-05-19T19:19:12.997Z,4.35
2019-05-19T19:21:42.581Z,4.42
2019-05-19T19:24:17.234Z,3.90
2019-05-19T19:26:47.231Z,3.77
2019-05-19T19:29:17.669Z,3.85
2019-05-19T19:34:20.768Z,3.67
2019-05-19T19:36:50.169Z,3.80
2019-05-19T19:39:19.695Z,3.87
2019-05-19T19:41:49.585Z,3.27
2019-05-19T19:44:19.226Z,4.03
2019-05-19T19:46:49.056Z,3.70
2019-05-19T19:49:21.492Z,3.55
2019-05-19T19:51:50.833Z,3.45
2019-05-19T19:54:20.162Z,2.90
2019-05-19T19:56:49.611Z,3.37
2019-05-19T19:59:19.221Z,3.58
2019-05-19T20:01:48.423Z,3.15
2019-05-19T20:04:17.614Z,3.00
2019-05-19T20:06:47.458Z,3.17
2019-05-19T20:09:16.538Z,2.85
2019-05-19T20:11:46.262Z,3.60
2019-05-19T20:14:15.713Z,3.27
2019-05-19T20:16:45.258Z,2.90
2019-05-19T20:19:14.551Z,2.77
2019-05-19T20:21:44.173Z,3.08
2019-05-19T20:24:13.314Z,3.05
2019-05-19T20:26:42.364Z,3.33
2019-05-19T20:29:11.865Z,2.90
2019-05-19T20:34:11.686Z,3.35
2019-05-19T20:36:40.589Z,3.65
2019-05-19T20:39:09.680Z,3.42
2019-05-19T20:41:39.047Z,2.95
2019-05-19T20:44:08.487Z,2.87
2019-05-19T20:46:37.582Z,3.00
2019-05-19T20:49:09.943Z,2.85
2019-05-19T20:51:40.384Z,3.30
2019-05-19T20:54:09.707Z,3.40
2019-05-19T20:56:39.191Z,3.35
2019-05-19T20:59:08.552Z,3.20
2019-05-19T21:01:38.206Z,3.17
2019-05-19T21:04:07.837Z,3.27
2019-05-19T21:06:37.111Z,3.05
2019-05-19T21:09:06.531Z,2.92
2019-05-19T21:11:36.027Z,2.75
2019-05-19T21:14:06.287Z,3.30
2019-05-19T21:16:40.000Z,2.85
2019-05-19T21:19:10.387Z,3.02
2019-05-19T21:21:47.705Z,3.02
2019-05-19T21:24:17.281Z,3.17
2019-05-19T21:26:46.995Z,3.40
2019-05-19T21:29:16.004Z,3.12
2019-05-19T21:31:48.469Z,3.15
2019-05-19T21:34:17.965Z,3.12
2019-05-19T21:36:47.282Z,2.95
2019-05-19T21:39:16.272Z,3.55
2019-05-19T21:41:45.869Z,3.10
2019-05-19T21:44:15.689Z,2.95
2019-05-19T21:46:44.948Z,3.17
2019-05-19T21:49:14.496Z,3.40
2019-05-19T21:51:43.345Z,3.40
2019-05-19T21:54:12.595Z,3.67
2019-05-19T21:56:41.877Z,3.35
2019-05-19T21:59:11.414Z,2.92
2019-05-19T22:01:40.901Z,3.60
2019-05-19T22:04:10.600Z,3.35
2019-05-19T22:06:40.030Z,3.30
2019-05-19T22:09:09.415Z,3.50
2019-05-19T22:11:38.695Z,2.92
2019-05-19T22:14:08.589Z,3.10
2019-05-19T22:16:37.913Z,3.15
2019-05-19T22:19:07.108Z,3.45
2019-05-19T22:21:36.638Z,3.00
2019-05-19T22:24:06.274Z,3.42
2019-05-19T22:26:35.875Z,3.37
2019-05-19T22:29:07.950Z,3.30
2019-05-19T22:31:37.374Z,3.42
2019-05-19T22:34:06.738Z,3.45
2019-05-19T22:36:36.238Z,3.00
2019-05-19T22:39:09.024Z,3.70
2019-05-19T22:41:38.635Z,3.45
2019-05-19T22:44:07.843Z,3.30
2019-05-19T22:46:38.028Z,3.20
2019-05-19T22:49:07.531Z,3.37
2019-05-19T22:51:37.388Z,3.30
2019-05-19T22:54:06.781Z,3.72
2019-05-19T22:56:39.359Z,3.77
2019-05-19T22:59:19.266Z,3.25
2019-05-19T23:01:51.017Z,3.85
2019-05-19T23:04:10.264Z,3.80
2019-05-19T23:06:39.236Z,3.45
2019-05-19T23:09:08.446Z,3.15
2019-05-19T23:11:38.151Z,3.35
2019-05-19T23:14:07.339Z,3.52
2019-05-19T23:16:36.748Z,3.50
2019-05-19T23:19:06.018Z,3.50
2019-05-19T23:21:35.294Z,3.37
2019-05-19T23:24:05.052Z,3.45
2019-05-19T23:26:34.574Z,3.40
2019-05-19T23:31:34.335Z,3.52
2019-05-19T23:34:03.610Z,3.60
